createdAt,value
2019-06-15T00:00:09.051Z,18.37
2019-06-15T00:01:09.031Z,18.39
2019-06-15T00:02:08.989Z,18.47
2019-06-15T00:03:08.977Z,18.35
2019-06-15T00:04:08.934Z,18.25
2019-06-15T00:05:08.930Z,18.21
2019-06-15T00:06:08.924Z,18.26
2019-06-15T00:07:08.976Z,18.17
2019-06-15T00:08:08.909Z,18.15
2019-06-15T00:09:08.772Z,18.14
2019-06-15T00:10:08.748Z,18.15
2019-06-15T00:11:08.735Z,18.11
2019-06-15T00:12:08.664Z,18.08
2019-06-15T00:13:08.645Z,18.15
2019-06-15T00:14:08.629Z,18.10
2019-06-15T00:15:08.602Z,18.15
2019-06-15T00:16:08.596Z,18.10
2019-06-15T00:17:08.514Z,18.25
2019-06-15T00:18:08.466Z,18.29
2019-06-15T00:19:08.437Z,18.20
2019-06-15T00:20:08.527Z,18.23
2019-06-15T00:21:08.376Z,18.20
2019-06-15T00:22:08.340Z,18.17
2019-06-15T00:23:08.331Z,18.15
2019-06-15T00:24:08.277Z,18.07
2019-06-15T00:25:08.247Z,18.11
2019-06-15T00:26:08.213Z,17.97
2019-06-15T00:27:08.180Z,17.90
2019-06-15T00:28:08.152Z,17.78
2019-06-15T00:29:08.123Z,17.87
2019-06-15T00:30:08.086Z,17.84
2019-06-15T00:31:08.075Z,17.96
2019-06-15T00:32:08.012Z,17.89
2019-06-15T00:33:07.994Z,17.90
2019-06-15T00:34:07.956Z,17.82
2019-06-15T00:35:07.959Z,17.78
2019-06-15T00:36:07.911Z,17.81
2019-06-15T00:37:07.885Z,17.81
2019-06-15T00:38:07.894Z,17.79
2019-06-15T00:39:07.807Z,17.72
2019-06-15T00:40:07.790Z,17.77
2019-06-15T00:41:07.782Z,17.77
2019-06-15T00:42:11.796Z,17.78
2019-06-15T00:43:16.465Z,17.78
2019-06-15T00:44:10.581Z,17.56
2019-06-15T00:45:07.787Z,17.58
2019-06-15T00:46:08.495Z,17.54
2019-06-15T00:47:09.344Z,17.62
2019-06-15T00:48:09.155Z,17.55
2019-06-15T00:49:08.132Z,17.54
2019-06-15T00:50:07.934Z,17.46
2019-06-15T00:51:08.067Z,17.43
2019-06-15T00:52:08.843Z,17.52
2019-06-15T00:53:09.439Z,17.52
2019-06-15T00:54:10.986Z,17.44
2019-06-15T00:55:12.532Z,17.48
2019-06-15T00:56:10.017Z,17.54
2019-06-15T00:57:09.310Z,17.66
2019-06-15T00:58:07.240Z,17.64
2019-06-15T00:59:07.146Z,17.71
2019-06-15T01:00:07.169Z,17.74
2019-06-15T01:01:07.097Z,17.62
2019-06-15T01:02:07.050Z,17.59
2019-06-15T01:03:07.026Z,17.49
2019-06-15T01:04:06.978Z,17.43
2019-06-15T01:05:06.939Z,17.33
2019-06-15T01:06:06.919Z,17.41
2019-06-15T01:07:06.881Z,17.56
2019-06-15T01:08:06.865Z,17.55
2019-06-15T01:09:06.825Z,17.33
2019-06-15T01:10:06.791Z,17.38
2019-06-15T01:11:06.781Z,17.38
2019-06-15T01:12:06.731Z,17.41
2019-06-15T01:13:06.684Z,17.34
2019-06-15T01:14:06.649Z,17.40
2019-06-15T01:15:06.624Z,17.37
2019-06-15T01:16:06.584Z,17.33
2019-06-15T01:17:06.556Z,17.38
2019-06-15T01:18:06.542Z,17.33
2019-06-15T01:19:06.520Z,17.36
2019-06-15T01:20:06.483Z,17.36
2019-06-15T01:21:06.439Z,17.46
2019-06-15T01:22:06.426Z,17.41
2019-06-15T01:23:06.390Z,17.34
2019-06-15T01:24:06.371Z,17.34
2019-06-15T01:25:06.315Z,17.34
2019-06-15T01:26:06.259Z,17.40
2019-06-15T01:27:06.247Z,17.34
2019-06-15T01:28:06.234Z,17.23
2019-06-15T01:29:06.222Z,17.31
2019-06-15T01:30:06.176Z,17.30
2019-06-15T01:31:06.096Z,17.28
2019-06-15T01:32:06.136Z,17.28
2019-06-15T01:33:06.046Z,17.28
2019-06-15T01:34:06.052Z,17.23
2019-06-15T01:35:05.973Z,17.30
2019-06-15T01:36:05.929Z,17.25
2019-06-15T01:37:05.892Z,17.08
2019-06-15T01:38:05.859Z,17.06
2019-06-15T01:39:05.835Z,17.19
2019-06-15T01:40:05.809Z,17.22
2019-06-15T01:41:05.768Z,17.15
2019-06-15T01:42:05.747Z,16.98
2019-06-15T01:43:05.717Z,16.98
2019-06-15T01:44:05.666Z,17.11
2019-06-15T01:45:05.646Z,17.14
2019-06-15T01:46:05.603Z,17.15
2019-06-15T01:47:05.578Z,17.25
2019-06-15T01:48:05.533Z,17.25
2019-06-15T01:49:05.520Z,17.25
2019-06-15T01:50:05.501Z,17.25
2019-06-15T01:51:05.456Z,17.22
2019-06-15T01:52:05.427Z,17.18
2019-06-15T01:53:05.407Z,17.19
2019-06-15T01:54:05.406Z,17.15
2019-06-15T01:55:17.456Z,17.19
2019-06-15T01:56:05.286Z,17.18
2019-06-15T01:57:05.241Z,17.22
2019-06-15T01:58:05.235Z,17.23
2019-06-15T01:59:05.207Z,16.98
2019-06-15T02:00:05.158Z,17.01
2019-06-15T02:01:05.157Z,16.91
2019-06-15T02:02:05.069Z,16.79
2019-06-15T02:03:05.052Z,16.76
2019-06-15T02:04:05.091Z,16.68
2019-06-15T02:05:04.969Z,16.82
2019-06-15T02:06:04.934Z,16.86
2019-06-15T02:07:04.901Z,16.81
2019-06-15T02:08:04.873Z,16.82
2019-06-15T02:09:04.842Z,16.76
2019-06-15T02:10:04.806Z,16.83
2019-06-15T02:11:04.784Z,16.83
2019-06-15T02:12:04.736Z,16.89
2019-06-15T02:13:04.714Z,16.94
2019-06-15T02:14:04.673Z,16.81
2019-06-15T02:15:04.640Z,16.71
2019-06-15T02:16:04.611Z,16.66
2019-06-15T02:17:04.582Z,16.60
2019-06-15T02:18:04.544Z,16.63
2019-06-15T02:19:04.506Z,16.70
2019-06-15T02:20:04.520Z,16.79
2019-06-15T02:21:04.464Z,16.83
2019-06-15T02:22:04.428Z,16.88
2019-06-15T02:23:04.391Z,16.81
2019-06-15T02:24:04.380Z,16.79
2019-06-15T02:25:04.361Z,16.81
2019-06-15T02:26:04.324Z,16.79
2019-06-15T02:27:04.301Z,16.78
2019-06-15T02:28:04.240Z,16.60
2019-06-15T02:29:04.191Z,16.64
2019-06-15T02:30:04.174Z,16.52
2019-06-15T02:31:04.132Z,16.50
2019-06-15T02:32:04.082Z,16.53
2019-06-15T02:33:04.113Z,16.53
2019-06-15T02:34:04.080Z,16.50
2019-06-15T02:35:04.002Z,16.52
2019-06-15T02:36:03.953Z,16.53
2019-06-15T02:37:03.953Z,16.67
2019-06-15T02:38:03.898Z,16.64
2019-06-15T02:39:03.844Z,16.79
2019-06-15T02:40:03.806Z,16.76
2019-06-15T02:41:03.776Z,16.82
2019-06-15T02:42:03.738Z,16.85
2019-06-15T02:43:03.708Z,16.82
2019-06-15T02:44:03.673Z,17.01
2019-06-15T02:45:03.637Z,16.94
2019-06-15T02:46:03.609Z,16.93
2019-06-15T02:47:03.573Z,16.91
2019-06-15T02:48:03.539Z,16.82
2019-06-15T02:49:03.502Z,16.96
2019-06-15T02:50:03.475Z,16.89
2019-06-15T02:51:03.440Z,16.67
2019-06-15T02:52:03.400Z,16.60
2019-06-15T02:53:03.375Z,16.52
2019-06-15T02:54:03.348Z,16.53
2019-06-15T02:55:03.389Z,16.43
2019-06-15T02:56:03.283Z,16.45
2019-06-15T02:57:03.248Z,16.57
2019-06-15T02:58:03.211Z,16.61
2019-06-15T02:59:03.205Z,16.70
2019-06-15T03:00:03.162Z,16.73
2019-06-15T03:01:03.135Z,16.79
2019-06-15T03:02:03.135Z,16.79
2019-06-15T03:03:03.100Z,16.78
2019-06-15T03:04:03.032Z,16.63
2019-06-15T03:05:02.998Z,16.70
2019-06-15T03:06:02.975Z,16.73
2019-06-15T03:07:02.963Z,16.70
2019-06-15T03:08:02.917Z,16.79
2019-06-15T03:09:02.862Z,16.85
2019-06-15T03:10:02.809Z,16.97
2019-06-15T03:11:02.770Z,17.01
2019-06-15T03:12:02.737Z,16.82
2019-06-15T03:13:02.703Z,16.79
2019-06-15T03:14:02.670Z,16.79
2019-06-15T03:15:02.706Z,16.83
2019-06-15T03:16:02.604Z,16.86
2019-06-15T03:17:02.575Z,16.97
2019-06-15T03:18:02.531Z,16.91
2019-06-15T03:19:02.512Z,16.96
2019-06-15T03:20:02.613Z,17.06
2019-06-15T03:21:02.447Z,17.04
2019-06-15T03:22:02.413Z,17.06
2019-06-15T03:23:02.375Z,17.14
2019-06-15T03:24:02.336Z,17.18
2019-06-15T03:25:02.302Z,17.23
2019-06-15T03:26:05.840Z,17.30
2019-06-15T03:27:02.297Z,17.37
2019-06-15T03:28:02.244Z,17.48
2019-06-15T03:29:02.210Z,17.59
2019-06-15T03:30:02.195Z,17.49
2019-06-15T03:31:02.139Z,17.54
2019-06-15T03:32:02.100Z,17.58
2019-06-15T03:33:02.058Z,17.49
2019-06-15T03:34:02.031Z,17.48
2019-06-15T03:35:02.434Z,17.51
2019-06-15T03:36:01.972Z,17.49
2019-06-15T03:37:01.913Z,17.54
2019-06-15T03:38:01.899Z,17.54
2019-06-15T03:39:01.862Z,17.55
2019-06-15T03:40:01.846Z,17.63
2019-06-15T03:41:01.784Z,17.62
2019-06-15T03:42:01.748Z,17.63
2019-06-15T03:43:01.713Z,17.64
2019-06-15T03:44:01.716Z,17.66
2019-06-15T03:45:01.701Z,17.59
2019-06-15T03:46:01.604Z,17.64
2019-06-15T03:47:01.598Z,17.79
2019-06-15T03:48:01.534Z,17.71
2019-06-15T03:49:01.502Z,17.75
2019-06-15T03:50:01.480Z,17.68
2019-06-15T03:51:01.444Z,17.79
2019-06-15T03:52:01.405Z,17.84
2019-06-15T03:53:01.414Z,17.82
2019-06-15T03:54:01.343Z,17.93
2019-06-15T03:55:01.311Z,17.84
2019-06-15T03:56:01.279Z,17.90
2019-06-15T03:57:01.251Z,17.95
2019-06-15T03:58:01.216Z,17.96
2019-06-15T03:59:01.223Z,18.02
2019-06-15T04:00:01.154Z,18.10
2019-06-15T04:01:01.155Z,18.11
2019-06-15T04:02:01.118Z,18.14
2019-06-15T04:03:01.091Z,18.15
2019-06-15T04:04:01.027Z,18.15
2019-06-15T04:05:01.017Z,18.23
2019-06-15T04:06:00.978Z,18.29
2019-06-15T04:07:00.963Z,18.48
2019-06-15T04:08:00.902Z,18.51
2019-06-15T04:09:00.869Z,18.57
2019-06-15T04:10:00.841Z,18.58
2019-06-15T04:11:00.821Z,18.73
2019-06-15T04:12:00.786Z,18.70
2019-06-15T04:13:00.752Z,18.73
2019-06-15T04:14:00.691Z,18.70
2019-06-15T04:15:00.657Z,18.78
2019-06-15T04:16:00.632Z,18.90
2019-06-15T04:17:00.589Z,18.87
2019-06-15T04:18:00.561Z,18.92
2019-06-15T04:19:00.531Z,18.90
2019-06-15T04:20:00.510Z,19.10
2019-06-15T04:21:00.461Z,19.08
2019-06-15T04:22:00.432Z,18.90
2019-06-15T04:23:00.399Z,18.92
2019-06-15T04:24:00.369Z,19.00
2019-06-15T04:25:00.336Z,19.13
2019-06-15T04:26:00.306Z,19.19
2019-06-15T04:27:00.290Z,19.16
2019-06-15T04:28:00.237Z,19.22
2019-06-15T04:29:00.214Z,19.25
2019-06-15T04:30:00.200Z,19.40
2019-06-15T04:31:00.156Z,19.43
2019-06-15T04:32:00.143Z,19.37
2019-06-15T04:33:00.137Z,19.43
2019-06-15T04:34:00.090Z,19.50
2019-06-15T04:35:00.039Z,19.51
2019-06-15T04:36:00.028Z,19.58
2019-06-15T04:36:59.976Z,19.63
2019-06-15T04:37:59.938Z,19.78
2019-06-15T04:38:59.915Z,19.62
2019-06-15T04:39:59.908Z,19.59
2019-06-15T04:41:01.691Z,19.87
2019-06-15T04:41:59.885Z,19.78
2019-06-15T04:42:59.810Z,19.73
2019-06-15T04:43:59.745Z,19.77
2019-06-15T04:44:59.724Z,19.61
2019-06-15T04:45:59.681Z,19.63
2019-06-15T04:46:59.677Z,19.62
2019-06-15T04:47:59.618Z,19.62
2019-06-15T04:48:59.581Z,19.65
2019-06-15T04:49:59.543Z,19.65
2019-06-15T04:50:59.503Z,19.50
2019-06-15T04:51:59.479Z,19.54
2019-06-15T04:52:59.444Z,19.51
2019-06-15T04:53:59.431Z,19.51
2019-06-15T04:54:59.397Z,19.40
2019-06-15T04:55:59.362Z,19.47
2019-06-15T04:56:59.345Z,19.54
2019-06-15T04:57:59.318Z,19.47
2019-06-15T04:58:59.267Z,19.51
2019-06-15T04:59:59.233Z,19.58
2019-06-15T05:00:59.212Z,19.50
2019-06-15T05:01:59.215Z,19.56
2019-06-15T05:02:59.170Z,19.55
2019-06-15T05:03:59.127Z,19.36
2019-06-15T05:04:59.112Z,19.37
2019-06-15T05:05:59.077Z,19.33
2019-06-15T05:06:59.069Z,19.43
2019-06-15T05:07:59.029Z,19.58
2019-06-15T05:08:58.983Z,19.66
2019-06-15T05:09:58.930Z,19.73
2019-06-15T05:10:59.935Z,19.80
2019-06-15T05:11:58.886Z,19.69
2019-06-15T05:12:58.879Z,19.83
2019-06-15T05:13:58.829Z,19.96
2019-06-15T05:14:58.809Z,20.02
2019-06-15T05:15:58.740Z,19.94
2019-06-15T05:16:58.706Z,19.95
2019-06-15T05:17:58.683Z,19.96
2019-06-15T05:18:58.648Z,20.05
2019-06-15T05:19:58.845Z,20.03
2019-06-15T05:20:58.576Z,20.05
2019-06-15T05:21:58.541Z,20.02
2019-06-15T05:22:58.526Z,20.03
2019-06-15T05:23:58.485Z,20.03
2019-06-15T05:24:58.478Z,20.05
2019-06-15T05:25:58.430Z,20.10
2019-06-15T05:27:06.277Z,20.03
2019-06-15T05:27:58.364Z,20.03
2019-06-15T05:28:58.324Z,20.14
2019-06-15T05:29:58.300Z,20.17
2019-06-15T05:30:58.269Z,20.06
2019-06-15T05:31:58.272Z,20.16
2019-06-15T05:32:58.260Z,20.20
2019-06-15T05:33:58.212Z,20.35
2019-06-15T05:34:58.168Z,20.38
2019-06-15T05:35:58.129Z,20.52
2019-06-15T05:36:58.090Z,20.79
2019-06-15T05:37:58.071Z,21.10
2019-06-15T05:38:58.063Z,21.53
2019-06-15T05:39:58.061Z,21.88
2019-06-15T05:40:58.000Z,22.42
2019-06-15T05:41:57.948Z,22.82
2019-06-15T05:42:58.036Z,23.27
2019-06-15T05:43:57.913Z,23.36
2019-06-15T05:44:57.868Z,23.17
2019-06-15T05:45:57.919Z,23.19
2019-06-15T05:46:57.795Z,23.15
2019-06-15T05:47:57.889Z,22.98
2019-06-15T05:48:57.726Z,22.82
2019-06-15T05:49:57.691Z,22.76
2019-06-15T05:50:58.667Z,22.91
2019-06-15T05:51:57.642Z,22.85
2019-06-15T05:52:57.620Z,22.90
2019-06-15T05:53:57.614Z,23.05
2019-06-15T05:54:57.643Z,23.05
2019-06-15T05:55:57.510Z,23.25
2019-06-15T05:56:57.518Z,23.42
2019-06-15T05:57:57.460Z,23.60
2019-06-15T05:58:57.437Z,23.73
2019-06-15T05:59:57.499Z,23.87
2019-06-15T06:00:57.385Z,23.91
2019-06-15T06:01:57.356Z,24.12
2019-06-15T06:02:57.329Z,24.16
2019-06-15T06:03:57.335Z,24.28
2019-06-15T06:04:57.276Z,24.12
2019-06-15T06:05:57.238Z,24.43
2019-06-15T06:06:57.196Z,24.62
2019-06-15T06:07:57.178Z,24.98
2019-06-15T06:08:57.148Z,25.36
2019-06-15T06:09:57.124Z,25.83
2019-06-15T06:10:57.164Z,26.50
2019-06-15T06:11:57.078Z,26.47
2019-06-15T06:12:57.037Z,26.60
2019-06-15T06:13:57.017Z,26.80
2019-06-15T06:14:56.976Z,26.97
2019-06-15T06:15:57.058Z,27.39
2019-06-15T06:16:56.986Z,27.75
2019-06-15T06:17:56.919Z,28.24
2019-06-15T06:18:56.898Z,28.76
2019-06-15T06:19:56.851Z,28.93
2019-06-15T06:20:57.057Z,29.00
2019-06-15T06:21:58.343Z,28.90
2019-06-15T06:22:56.777Z,28.31
2019-06-15T06:23:56.725Z,28.04
2019-06-15T06:24:56.703Z,28.04
2019-06-15T06:25:56.682Z,28.11
2019-06-15T06:26:56.696Z,28.14
2019-06-15T06:27:56.645Z,28.18
2019-06-15T06:28:57.568Z,28.06
2019-06-15T06:29:56.601Z,27.92
2019-06-15T06:30:56.544Z,28.04
2019-06-15T06:31:56.530Z,28.06
2019-06-15T06:32:56.484Z,28.11
2019-06-15T06:33:56.463Z,28.02
2019-06-15T06:34:56.443Z,27.96
2019-06-15T06:35:56.473Z,27.87
2019-06-15T06:36:56.401Z,27.75
2019-06-15T06:37:56.365Z,27.72
2019-06-15T06:38:56.371Z,27.60
2019-06-15T06:39:56.345Z,27.70
2019-06-15T06:40:56.327Z,27.57
2019-06-15T06:41:56.260Z,27.59
2019-06-15T06:42:56.311Z,27.57
2019-06-15T06:43:56.257Z,27.60
2019-06-15T06:44:56.204Z,27.74
2019-06-15T06:45:56.179Z,27.82
2019-06-15T06:46:56.155Z,27.84
2019-06-15T06:47:56.099Z,28.00
2019-06-15T06:48:56.131Z,27.99
2019-06-15T06:49:56.057Z,28.11
2019-06-15T06:50:56.033Z,28.18
2019-06-15T06:51:56.010Z,28.55
2019-06-15T06:52:55.978Z,28.64
2019-06-15T06:53:55.955Z,28.73
2019-06-15T06:54:55.924Z,28.81
2019-06-15T06:55:55.903Z,28.98
2019-06-15T06:56:55.876Z,29.42
2019-06-15T06:57:57.233Z,30.10
2019-06-15T06:58:55.875Z,30.86
2019-06-15T06:59:55.800Z,31.13
2019-06-15T07:00:55.806Z,31.58
2019-06-15T07:01:55.757Z,32.18
2019-06-15T07:02:55.802Z,32.44
2019-06-15T07:03:55.721Z,32.65
2019-06-15T07:04:55.695Z,33.03
2019-06-15T07:05:55.664Z,32.87
2019-06-15T07:06:55.638Z,32.66
2019-06-15T07:07:55.622Z,32.77
2019-06-15T07:08:55.588Z,33.41
2019-06-15T07:09:55.560Z,33.53
2019-06-15T07:10:55.539Z,33.91
2019-06-15T07:11:55.525Z,33.56
2019-06-15T07:12:55.494Z,33.45
2019-06-15T07:13:55.471Z,33.49
2019-06-15T07:14:55.443Z,33.31
2019-06-15T07:15:55.426Z,33.06
2019-06-15T07:16:55.398Z,32.92
2019-06-15T07:17:55.376Z,33.41
2019-06-15T07:18:55.360Z,33.78
2019-06-15T07:19:55.368Z,33.61
2019-06-15T07:20:55.326Z,33.18
2019-06-15T07:21:55.319Z,32.60
2019-06-15T07:22:55.325Z,32.21
2019-06-15T07:23:55.298Z,32.43
2019-06-15T07:24:55.264Z,32.26
2019-06-15T07:25:55.233Z,32.08
2019-06-15T07:26:55.250Z,31.76
2019-06-15T07:28:07.478Z,31.84
2019-06-15T07:28:55.163Z,31.39
2019-06-15T07:29:55.165Z,31.17
2019-06-15T07:30:55.175Z,31.10
2019-06-15T07:31:55.108Z,30.95
2019-06-15T07:32:55.127Z,30.83
2019-06-15T07:33:55.071Z,31.48
2019-06-15T07:34:55.040Z,31.51
2019-06-15T07:35:55.034Z,31.76
2019-06-15T07:36:54.987Z,31.63
2019-06-15T07:37:54.977Z,32.33
2019-06-15T07:38:54.958Z,32.87
2019-06-15T07:39:54.933Z,32.06
2019-06-15T07:40:54.920Z,31.63
2019-06-15T07:41:54.890Z,31.53
2019-06-15T07:42:54.868Z,31.17
2019-06-15T07:43:54.839Z,30.86
2019-06-15T07:44:54.819Z,30.88
2019-06-15T07:45:54.804Z,30.51
2019-06-15T07:46:54.789Z,30.46
2019-06-15T07:47:54.768Z,30.15
2019-06-15T07:48:54.735Z,29.98
2019-06-15T07:49:54.729Z,30.53
2019-06-15T07:50:54.703Z,31.34
2019-06-15T07:51:54.753Z,31.91
2019-06-15T07:52:54.737Z,32.77
2019-06-15T07:53:54.689Z,33.49
2019-06-15T07:54:54.658Z,33.91
2019-06-15T07:55:54.596Z,33.90
2019-06-15T07:56:54.596Z,33.91
2019-06-15T07:57:54.559Z,34.08
2019-06-15T07:58:54.553Z,34.17
2019-06-15T07:59:54.556Z,34.10
2019-06-15T08:00:54.548Z,34.25
2019-06-15T08:01:54.490Z,34.12
2019-06-15T08:02:54.475Z,34.30
2019-06-15T08:03:54.460Z,34.21
2019-06-15T08:04:54.424Z,34.24
2019-06-15T08:05:54.428Z,33.93
2019-06-15T08:06:54.366Z,34.17
2019-06-15T08:07:54.354Z,33.51
2019-06-15T08:08:54.323Z,33.35
2019-06-15T08:09:54.341Z,33.45
2019-06-15T08:10:54.295Z,33.82
2019-06-15T08:11:54.277Z,34.32
2019-06-15T08:12:54.255Z,34.39
2019-06-15T08:13:54.263Z,34.53
2019-06-15T08:14:54.220Z,34.32
2019-06-15T08:15:54.201Z,34.69
2019-06-15T08:16:54.196Z,34.84
2019-06-15T08:17:54.170Z,33.93
2019-06-15T08:18:54.143Z,33.82
2019-06-15T08:19:54.133Z,33.76
2019-06-15T08:20:54.098Z,33.76
2019-06-15T08:21:54.089Z,34.12
2019-06-15T08:22:54.086Z,34.53
2019-06-15T08:23:54.074Z,34.89
2019-06-15T08:24:54.046Z,34.84
2019-06-15T08:25:54.030Z,34.81
2019-06-15T08:26:54.005Z,34.61
2019-06-15T08:27:53.979Z,34.49
2019-06-15T08:28:53.966Z,34.44
2019-06-15T08:29:53.951Z,34.54
2019-06-15T08:30:53.956Z,34.42
2019-06-15T08:31:53.928Z,34.53
2019-06-15T08:32:53.917Z,34.19
2019-06-15T08:33:53.861Z,34.05
2019-06-15T08:34:53.842Z,33.01
2019-06-15T08:35:53.825Z,32.94
2019-06-15T08:36:53.810Z,33.19
2019-06-15T08:37:53.797Z,33.47
2019-06-15T08:38:53.789Z,33.41
2019-06-15T08:39:53.750Z,33.75
2019-06-15T08:40:53.738Z,33.59
2019-06-15T08:41:56.797Z,33.68
2019-06-15T08:42:53.712Z,34.17
2019-06-15T08:43:53.684Z,34.47
2019-06-15T08:44:53.658Z,34.96
2019-06-15T08:45:53.652Z,34.89
2019-06-15T08:46:53.679Z,34.73
2019-06-15T08:47:53.621Z,34.13
2019-06-15T08:48:53.614Z,34.09
2019-06-15T08:49:53.592Z,34.22
2019-06-15T08:50:53.589Z,34.59
2019-06-15T08:51:53.541Z,34.65
2019-06-15T08:52:53.529Z,34.85
2019-06-15T08:53:53.514Z,35.14
2019-06-15T08:54:53.498Z,35.23
2019-06-15T08:55:53.547Z,35.15
2019-06-15T08:56:53.446Z,34.78
2019-06-15T08:57:54.424Z,34.52
2019-06-15T08:58:55.806Z,34.80
2019-06-15T08:59:53.469Z,35.06
2019-06-15T09:00:53.375Z,34.94
2019-06-15T09:01:53.360Z,34.97
2019-06-15T09:02:53.343Z,34.61
2019-06-15T09:03:53.329Z,34.06
2019-06-15T09:04:53.306Z,33.78
2019-06-15T09:05:53.284Z,33.78
2019-06-15T09:06:53.278Z,34.13
2019-06-15T09:07:53.249Z,33.95
2019-06-15T09:08:53.245Z,34.25
2019-06-15T09:09:53.215Z,34.88
2019-06-15T09:10:53.221Z,34.97
2019-06-15T09:11:53.185Z,34.78
2019-06-15T09:12:53.186Z,34.47
2019-06-15T09:13:53.147Z,34.44
2019-06-15T09:14:53.197Z,34.47
2019-06-15T09:15:53.147Z,34.47
2019-06-15T09:16:53.132Z,34.02
2019-06-15T09:17:53.149Z,33.90
2019-06-15T09:18:53.070Z,33.97
2019-06-15T09:19:53.046Z,33.94
2019-06-15T09:20:53.077Z,33.94
2019-06-15T09:21:53.032Z,34.05
2019-06-15T09:22:53.011Z,34.30
2019-06-15T09:23:53.000Z,34.08
2019-06-15T09:24:53.075Z,33.90
2019-06-15T09:25:52.987Z,34.22
2019-06-15T09:26:52.974Z,34.50
2019-06-15T09:27:52.889Z,34.70
2019-06-15T09:28:52.903Z,34.40
2019-06-15T09:29:52.908Z,34.53
2019-06-15T09:30:52.847Z,34.94
2019-06-15T09:31:52.831Z,34.97
2019-06-15T09:32:52.799Z,34.92
2019-06-15T09:33:52.944Z,34.66
2019-06-15T09:34:52.772Z,34.24
2019-06-15T09:35:52.772Z,34.19
2019-06-15T09:36:52.748Z,33.91
2019-06-15T09:37:52.742Z,34.21
2019-06-15T09:38:52.710Z,34.30
2019-06-15T09:39:52.745Z,34.15
2019-06-15T09:40:52.911Z,34.16
2019-06-15T09:41:52.772Z,33.97
2019-06-15T09:42:52.696Z,34.22
2019-06-15T09:43:52.678Z,34.39
2019-06-15T09:44:52.606Z,34.32
2019-06-15T09:45:52.589Z,34.37
2019-06-15T09:46:52.573Z,34.30
2019-06-15T09:47:52.600Z,34.00
2019-06-15T09:48:52.641Z,33.76
2019-06-15T09:49:53.440Z,33.44
2019-06-15T09:50:52.562Z,33.71
2019-06-15T09:51:52.550Z,33.73
2019-06-15T09:52:52.440Z,33.45
2019-06-15T09:53:52.487Z,33.93
2019-06-15T09:54:52.455Z,33.93
2019-06-15T09:55:52.490Z,33.91
2019-06-15T09:56:52.422Z,33.29
2019-06-15T09:57:52.400Z,33.42
2019-06-15T09:58:52.327Z,33.56
2019-06-15T09:59:52.335Z,33.45
2019-06-15T10:00:52.328Z,33.44
2019-06-15T10:01:52.297Z,33.39
2019-06-15T10:02:52.255Z,33.42
2019-06-15T10:03:52.241Z,33.65
2019-06-15T10:04:52.209Z,33.50
2019-06-15T10:05:52.179Z,33.34
2019-06-15T10:06:52.210Z,33.34
2019-06-15T10:07:52.152Z,33.12
2019-06-15T10:08:52.135Z,33.07
2019-06-15T10:09:52.118Z,32.78
2019-06-15T10:10:52.133Z,32.99
2019-06-15T10:11:52.102Z,33.00
2019-06-15T10:12:52.062Z,32.75
2019-06-15T10:13:52.168Z,32.97
2019-06-15T10:14:52.114Z,32.94
2019-06-15T10:15:52.109Z,32.87
2019-06-15T10:16:51.990Z,33.09
2019-06-15T10:17:51.969Z,32.84
2019-06-15T10:18:51.940Z,32.41
2019-06-15T10:19:51.920Z,32.38
2019-06-15T10:20:51.964Z,32.77
2019-06-15T10:21:51.918Z,32.85
2019-06-15T10:22:51.878Z,33.16
2019-06-15T10:23:51.840Z,33.47
2019-06-15T10:24:51.851Z,32.93
2019-06-15T10:25:54.178Z,32.97
2019-06-15T10:26:51.790Z,32.69
2019-06-15T10:27:51.780Z,32.55
2019-06-15T10:28:51.750Z,32.66
2019-06-15T10:29:51.732Z,32.87
2019-06-15T10:30:51.694Z,32.70
2019-06-15T10:31:51.691Z,32.92
2019-06-15T10:32:51.667Z,33.28
2019-06-15T10:33:51.654Z,33.44
2019-06-15T10:34:51.650Z,33.49
2019-06-15T10:35:51.655Z,33.26
2019-06-15T10:36:51.642Z,33.11
2019-06-15T10:37:51.577Z,32.92
2019-06-15T10:38:51.569Z,33.07
2019-06-15T10:39:51.634Z,33.16
2019-06-15T10:40:51.509Z,32.99
2019-06-15T10:41:51.523Z,32.81
2019-06-15T10:42:51.460Z,32.66
2019-06-15T10:43:51.440Z,32.59
2019-06-15T10:44:51.778Z,32.75
2019-06-15T10:45:51.411Z,32.13
2019-06-15T10:46:51.375Z,32.50
2019-06-15T10:47:51.490Z,32.14
2019-06-15T10:48:52.057Z,32.60
2019-06-15T10:49:51.409Z,32.96
2019-06-15T10:50:51.415Z,33.26
2019-06-15T10:51:51.342Z,33.29
2019-06-15T10:52:51.264Z,32.94
2019-06-15T10:53:51.248Z,33.01
2019-06-15T10:54:51.242Z,32.72
2019-06-15T10:55:51.204Z,32.55
2019-06-15T10:56:51.205Z,32.47
2019-06-15T10:57:51.253Z,32.60
2019-06-15T10:58:51.178Z,32.69
2019-06-15T10:59:57.351Z,32.81
2019-06-15T11:00:51.174Z,33.11
2019-06-15T11:01:51.184Z,32.93
2019-06-15T11:02:51.137Z,33.11
2019-06-15T11:03:51.072Z,33.22
2019-06-15T11:04:51.033Z,33.18
2019-06-15T11:05:52.082Z,33.59
2019-06-15T11:06:50.991Z,33.57
2019-06-15T11:07:50.968Z,33.37
2019-06-15T11:08:50.938Z,33.11
2019-06-15T11:09:50.921Z,33.03
2019-06-15T11:10:50.955Z,32.82
2019-06-15T11:11:50.941Z,32.97
2019-06-15T11:12:50.872Z,33.44
2019-06-15T11:13:50.854Z,33.44
2019-06-15T11:14:50.820Z,33.14
2019-06-15T11:15:50.806Z,32.97
2019-06-15T11:16:50.787Z,33.23
2019-06-15T11:17:50.809Z,33.16
2019-06-15T11:18:50.775Z,33.09
2019-06-15T11:19:50.711Z,32.72
2019-06-15T11:20:50.702Z,32.52
2019-06-15T11:21:50.687Z,32.75
2019-06-15T11:22:50.673Z,32.35
2019-06-15T11:23:50.676Z,32.66
2019-06-15T11:24:50.617Z,32.59
2019-06-15T11:25:50.596Z,31.73
2019-06-15T11:26:50.669Z,31.26
2019-06-15T11:27:50.563Z,30.20
2019-06-15T11:28:50.583Z,30.84
2019-06-15T11:29:50.518Z,31.34
2019-06-15T11:30:50.517Z,31.07
2019-06-15T11:31:50.516Z,31.09
2019-06-15T11:32:50.878Z,30.97
2019-06-15T11:33:50.438Z,31.41
2019-06-15T11:34:50.475Z,31.70
2019-06-15T11:35:50.396Z,32.21
2019-06-15T11:36:50.436Z,31.88
2019-06-15T11:37:50.371Z,32.10
2019-06-15T11:38:50.353Z,32.07
2019-06-15T11:39:50.366Z,31.39
2019-06-15T11:40:50.311Z,31.56
2019-06-15T11:41:50.287Z,31.07
2019-06-15T11:42:50.322Z,31.35
2019-06-15T11:43:50.259Z,30.72
2019-06-15T11:44:50.244Z,30.22
2019-06-15T11:45:50.352Z,29.92
2019-06-15T11:46:50.196Z,29.60
2019-06-15T11:47:50.194Z,29.39
2019-06-15T11:48:50.148Z,29.09
2019-06-15T11:49:50.128Z,29.16
2019-06-15T11:50:50.104Z,29.11
2019-06-15T11:51:50.083Z,29.14
2019-06-15T11:52:50.056Z,29.60
2019-06-15T11:53:50.034Z,29.26
2019-06-15T11:54:50.020Z,29.30
2019-06-15T11:55:49.985Z,29.58
2019-06-15T11:56:49.974Z,29.94
2019-06-15T11:57:49.958Z,30.24
2019-06-15T11:58:49.931Z,30.72
2019-06-15T11:59:49.906Z,30.86
2019-06-15T12:00:49.905Z,31.17
2019-06-15T12:01:49.880Z,31.16
2019-06-15T12:02:49.856Z,31.48
2019-06-15T12:03:49.853Z,31.53
2019-06-15T12:04:58.124Z,31.85
2019-06-15T12:05:49.791Z,31.92
2019-06-15T12:06:49.790Z,31.16
2019-06-15T12:07:49.771Z,30.77
2019-06-15T12:08:49.768Z,30.43
2019-06-15T12:09:49.725Z,30.49
2019-06-15T12:10:49.709Z,30.88
2019-06-15T12:11:49.668Z,31.31
2019-06-15T12:12:49.654Z,31.41
2019-06-15T12:13:49.613Z,31.76
2019-06-15T12:14:49.607Z,31.62
2019-06-15T12:15:49.563Z,31.73
2019-06-15T12:16:49.566Z,31.95
2019-06-15T12:17:49.525Z,32.21
2019-06-15T12:18:49.502Z,31.31
2019-06-15T12:19:49.522Z,31.26
2019-06-15T12:20:49.495Z,30.83
2019-06-15T12:21:49.448Z,30.62
2019-06-15T12:22:49.441Z,30.53
2019-06-15T12:23:49.416Z,30.08
2019-06-15T12:24:49.393Z,30.10
2019-06-15T12:25:49.426Z,30.27
2019-06-15T12:26:49.361Z,30.04
2019-06-15T12:27:49.403Z,30.49
2019-06-15T12:28:49.402Z,30.83
2019-06-15T12:29:49.337Z,31.09
2019-06-15T12:30:49.293Z,31.48
2019-06-15T12:31:49.265Z,31.80
2019-06-15T12:32:49.217Z,32.22
2019-06-15T12:33:49.279Z,32.08
2019-06-15T12:34:49.286Z,32.23
2019-06-15T12:35:49.164Z,31.80
2019-06-15T12:36:49.153Z,32.06
2019-06-15T12:37:49.161Z,32.41
2019-06-15T12:38:49.127Z,31.70
2019-06-15T12:39:49.167Z,31.26
2019-06-15T12:40:49.110Z,31.47
2019-06-15T12:41:49.106Z,31.63
2019-06-15T12:42:49.044Z,31.69
2019-06-15T12:43:49.009Z,31.12
2019-06-15T12:44:48.991Z,31.09
2019-06-15T12:45:48.964Z,31.54
2019-06-15T12:46:48.940Z,31.65
2019-06-15T12:47:48.921Z,31.51
2019-06-15T12:48:48.892Z,31.09
2019-06-15T12:49:48.890Z,31.14
2019-06-15T12:50:48.874Z,30.83
2019-06-15T12:51:48.867Z,30.01